createdAt,value
2018-04-26T00:01:54.909Z,3.20
2018-04-26T00:04:22.526Z,2.97
2018-04-26T00:06:50.055Z,3.27
2018-04-26T00:09:17.562Z,3.13
2018-04-26T00:11:45.082Z,2.73
2018-04-26T00:14:12.624Z,2.57
2018-04-26T00:16:40.138Z,2.60
2018-04-26T00:19:08.419Z,3.30
2018-04-26T00:21:36.001Z,3.13
2018-04-26T00:24:03.524Z,2.90
2018-04-26T00:26:31.061Z,2.93
2018-04-26T00:28:58.649Z,3.33
2018-04-26T00:31:26.195Z,3.23
2018-04-26T00:33:53.726Z,3.23
2018-04-26T00:36:21.242Z,3.10
2018-04-26T00:38:49.512Z,2.47
2018-04-26T00:41:17.048Z,3.47
2018-04-26T00:43:44.557Z,3.43
2018-04-26T00:46:12.834Z,3.20
2018-04-26T00:48:40.457Z,2.93
2018-04-26T00:51:07.948Z,3.27
2018-04-26T00:53:35.475Z,3.20
2018-04-26T00:56:03.051Z,3.53
2018-04-26T00:58:31.338Z,3.20
2018-04-26T01:00:58.854Z,2.67
2018-04-26T01:03:26.407Z,3.17
2018-04-26T01:05:53.917Z,2.97
2018-04-26T01:08:22.331Z,3.20
2018-04-26T01:10:49.858Z,2.30
2018-04-26T01:13:17.380Z,3.40
2018-04-26T01:15:44.934Z,3.30
2018-04-26T01:18:12.545Z,3.87
2018-04-26T01:20:40.073Z,3.70
2018-04-26T01:23:07.587Z,3.43
2018-04-26T01:25:35.098Z,3.30
2018-04-26T01:28:02.658Z,3.00
2018-04-26T01:30:30.166Z,3.90
2018-04-26T01:32:57.730Z,3.80
2018-04-26T01:35:25.254Z,2.20
2018-04-26T01:37:53.562Z,3.63
2018-04-26T01:40:21.871Z,3.60
2018-04-26T01:42:49.409Z,3.23
2018-04-26T01:45:16.927Z,3.23
2018-04-26T01:47:45.232Z,3.60
2018-04-26T01:50:13.518Z,3.60
2018-04-26T01:52:41.031Z,3.73
2018-04-26T01:55:08.578Z,3.63
2018-04-26T01:57:36.927Z,4.37
2018-04-26T02:00:04.388Z,4.30
2018-04-26T02:02:31.925Z,4.80
2018-04-26T02:05:00.267Z,4.07
2018-04-26T02:07:27.790Z,4.30
2018-04-26T02:09:55.316Z,5.10
2018-04-26T02:12:22.850Z,4.37
2018-04-26T02:14:50.403Z,4.27
2018-04-26T02:17:17.966Z,4.43
2018-04-26T02:19:45.518Z,3.87
2018-04-26T02:22:13.049Z,4.53
2018-04-26T02:24:40.618Z,4.50
2018-04-26T02:27:08.181Z,4.20
2018-04-26T02:29:35.657Z,4.57
2018-04-26T02:32:03.207Z,5.50
2018-04-26T02:34:30.744Z,5.40
2018-04-26T02:36:58.264Z,5.00
2018-04-26T02:39:25.794Z,5.70
2018-04-26T02:41:53.302Z,5.00
2018-04-26T02:44:21.579Z,4.60
2018-04-26T02:46:49.131Z,5.07
2018-04-26T02:49:16.763Z,5.20
2018-04-26T02:51:44.336Z,4.80
2018-04-26T02:54:11.901Z,5.60
2018-04-26T02:56:39.432Z,5.33
2018-04-26T02:59:07.768Z,4.70
2018-04-26T03:01:35.266Z,5.10
2018-04-26T03:04:02.780Z,4.07
2018-04-26T03:06:30.318Z,4.23
2018-04-26T03:08:57.831Z,4.03
2018-04-26T03:11:25.338Z,5.27
2018-04-26T03:13:52.864Z,5.30
2018-04-26T03:16:20.366Z,3.73
2018-04-26T03:18:48.667Z,4.77
2018-04-26T03:21:16.202Z,5.10
2018-04-26T03:23:43.744Z,4.57
2018-04-26T03:26:11.250Z,5.57
2018-04-26T03:28:39.537Z,3.90
2018-04-26T03:31:07.110Z,3.67
2018-04-26T03:33:34.573Z,3.40
2018-04-26T03:36:02.123Z,3.20
2018-04-26T03:38:29.623Z,3.57
2018-04-26T03:40:57.123Z,4.30
2018-04-26T03:43:24.667Z,3.63
2018-04-26T03:45:52.218Z,5.10
2018-04-26T03:48:19.725Z,4.80
2018-04-26T03:50:47.292Z,5.73
2018-04-26T03:53:14.809Z,5.87
2018-04-26T03:55:43.093Z,5.40
2018-04-26T03:58:10.625Z,5.73
2018-04-26T04:00:49.873Z,5.67
2018-04-26T04:03:29.184Z,6.00
2018-04-26T04:08:53.279Z,4.77
2018-04-26T04:11:20.782Z,4.73
2018-04-26T04:13:49.083Z,5.67
2018-04-26T04:16:16.611Z,5.57
2018-04-26T04:18:44.206Z,5.50
2018-04-26T04:21:11.762Z,6.03
2018-04-26T04:23:39.290Z,6.50
2018-04-26T04:26:06.946Z,5.70
2018-04-26T04:28:34.538Z,6.47
2018-04-26T04:31:02.108Z,6.47
2018-04-26T04:33:29.661Z,6.53
2018-04-26T04:35:57.238Z,7.40
2018-04-26T04:38:24.783Z,5.60
2018-04-26T04:40:53.066Z,6.60
2018-04-26T04:43:21.342Z,6.37
2018-04-26T04:45:48.866Z,5.80
2018-04-26T04:48:16.372Z,6.30
2018-04-26T04:50:43.906Z,6.60
2018-04-26T04:53:12.232Z,6.53
2018-04-26T04:55:39.753Z,6.40
2018-04-26T04:58:08.029Z,7.53
2018-04-26T05:00:36.335Z,6.80
2018-04-26T05:03:03.850Z,6.90
2018-04-26T05:05:31.403Z,8.50
2018-04-26T05:07:58.994Z,6.63
2018-04-26T05:10:26.638Z,7.23
2018-04-26T05:12:54.152Z,7.20
2018-04-26T05:15:21.683Z,5.63
2018-04-26T05:17:49.198Z,4.13
2018-04-26T05:20:16.725Z,4.67
2018-04-26T05:22:44.280Z,5.03
2018-04-26T05:25:11.799Z,4.57
2018-04-26T05:27:39.322Z,5.13
2018-04-26T05:30:06.913Z,4.80
2018-04-26T05:32:34.418Z,4.90
2018-04-26T05:35:01.964Z,4.90
2018-04-26T05:37:29.467Z,4.83
2018-04-26T05:39:57.158Z,6.40
2018-04-26T05:42:24.688Z,7.20
2018-04-26T05:44:52.287Z,5.40
2018-04-26T05:47:20.030Z,6.93
2018-04-26T05:49:47.560Z,7.07
2018-04-26T05:52:15.116Z,8.33
2018-04-26T05:54:42.698Z,8.90
2018-04-26T05:57:10.281Z,7.90
2018-04-26T05:59:37.809Z,5.47
2018-04-26T06:02:05.337Z,8.30
2018-04-26T06:04:33.638Z,9.00
2018-04-26T06:07:01.154Z,6.13
2018-04-26T06:09:28.694Z,8.00
2018-04-26T06:11:56.370Z,7.30
2018-04-26T06:14:23.901Z,7.57
2018-04-26T06:16:51.475Z,6.80
2018-04-26T06:19:19.726Z,6.90
2018-04-26T06:21:47.229Z,6.67
2018-04-26T06:24:14.749Z,6.67
2018-04-26T06:26:42.312Z,6.97
2018-04-26T06:29:09.821Z,7.10
2018-04-26T06:31:37.341Z,6.77
2018-04-26T06:34:04.867Z,6.63
2018-04-26T06:36:33.130Z,5.73
2018-04-26T06:39:00.733Z,6.33
2018-04-26T06:41:28.275Z,6.90
2018-04-26T06:43:55.788Z,5.37
2018-04-26T06:46:23.297Z,6.37
2018-04-26T06:48:50.879Z,7.43
2018-04-26T06:51:18.499Z,7.40
2018-04-26T06:53:47.235Z,7.10
2018-04-26T06:56:14.766Z,8.03
2018-04-26T06:58:43.109Z,7.50
2018-04-26T07:01:10.629Z,7.93
2018-04-26T07:03:38.150Z,7.70
2018-04-26T07:06:05.795Z,7.33
2018-04-26T07:08:33.265Z,6.37
2018-04-26T07:11:01.559Z,7.90
2018-04-26T07:13:29.869Z,8.77
2018-04-26T07:15:57.388Z,7.60
2018-04-26T07:18:25.711Z,8.10
2018-04-26T07:20:53.267Z,6.77
2018-04-26T07:23:20.840Z,7.60
2018-04-26T07:25:48.362Z,7.00
2018-04-26T07:28:15.915Z,7.57
2018-04-26T07:30:44.798Z,6.90
2018-04-26T07:33:12.346Z,7.17
2018-04-26T07:35:39.910Z,7.97
2018-04-26T07:38:07.439Z,6.30
2018-04-26T07:40:35.740Z,7.60
2018-04-26T07:43:03.258Z,7.80
2018-04-26T07:45:30.784Z,6.43
2018-04-26T07:47:58.418Z,7.23
2018-04-26T07:50:25.938Z,6.00
2018-04-26T07:52:53.449Z,5.97
2018-04-26T07:55:21.023Z,7.97
2018-04-26T07:57:48.531Z,6.47
2018-04-26T08:00:16.046Z,7.50
2018-04-26T08:02:44.206Z,7.50
2018-04-26T08:05:11.726Z,6.57
2018-04-26T08:07:39.257Z,7.80
2018-04-26T08:10:07.556Z,6.93
2018-04-26T08:12:35.100Z,5.00
2018-04-26T08:15:03.419Z,6.87
2018-04-26T08:17:30.925Z,7.20
2018-04-26T08:19:58.464Z,8.27
2018-04-26T08:22:26.067Z,7.37
2018-04-26T08:24:53.615Z,8.30
2018-04-26T08:27:21.163Z,9.17
2018-04-26T08:29:48.729Z,8.63
2018-04-26T08:32:16.810Z,8.40
2018-04-26T08:34:44.431Z,6.67
2018-04-26T08:37:11.952Z,8.53
2018-04-26T08:39:39.475Z,7.70
2018-04-26T08:42:07.013Z,7.83
2018-04-26T08:44:34.521Z,7.60
2018-04-26T08:47:02.815Z,8.83
2018-04-26T08:49:30.358Z,8.17
2018-04-26T08:51:58.656Z,8.97
2018-04-26T08:54:26.201Z,7.60
2018-04-26T08:56:53.737Z,7.17
2018-04-26T08:59:21.286Z,5.43
2018-04-26T09:01:49.602Z,7.10
2018-04-26T09:04:17.238Z,7.87
2018-04-26T09:06:44.900Z,9.17
2018-04-26T09:09:12.385Z,6.33
2018-04-26T09:11:39.923Z,5.87
2018-04-26T09:14:08.198Z,6.20
2018-04-26T09:16:35.716Z,8.17
2018-04-26T09:19:03.266Z,7.37
2018-04-26T09:21:31.548Z,7.77
2018-04-26T09:23:59.070Z,7.80
2018-04-26T09:26:26.664Z,7.07
2018-04-26T09:28:54.236Z,6.67
2018-04-26T09:31:21.754Z,7.33
2018-04-26T09:33:50.058Z,6.90
2018-04-26T09:36:17.586Z,6.83
2018-04-26T09:38:45.924Z,7.70
2018-04-26T09:41:13.405Z,6.63
2018-04-26T09:43:40.941Z,6.70
2018-04-26T09:46:08.452Z,4.30
2018-04-26T09:48:36.111Z,6.60
2018-04-26T09:51:03.567Z,7.23
2018-04-26T09:53:31.845Z,7.23
2018-04-26T09:55:59.380Z,7.70
2018-04-26T09:58:26.990Z,7.13
2018-04-26T10:00:54.545Z,6.93
2018-04-26T10:03:22.103Z,5.87
2018-04-26T10:05:56.116Z,7.27
2018-04-26T10:08:23.765Z,5.90
2018-04-26T10:10:51.321Z,6.03
2018-04-26T10:13:18.930Z,6.20
2018-04-26T10:15:46.569Z,6.80
2018-04-26T10:18:14.127Z,6.93
2018-04-26T10:20:41.683Z,5.80
2018-04-26T10:23:09.962Z,6.73
2018-04-26T10:25:37.481Z,7.40
2018-04-26T10:28:05.043Z,6.33
2018-04-26T10:30:32.563Z,7.13
2018-04-26T10:33:00.079Z,5.60
2018-04-26T10:35:27.644Z,5.87
2018-04-26T10:37:55.175Z,6.33
2018-04-26T10:40:22.662Z,5.53
2018-04-26T10:42:50.188Z,6.20
2018-04-26T10:45:17.689Z,5.40
2018-04-26T10:47:45.232Z,5.57
2018-04-26T10:50:12.749Z,5.40
2018-04-26T10:52:40.279Z,4.73
2018-04-26T10:55:07.864Z,4.77
2018-04-26T10:57:35.405Z,4.27
2018-04-26T11:00:03.742Z,4.70
2018-04-26T11:02:31.221Z,4.47
2018-04-26T11:04:58.727Z,4.37
2018-04-26T11:07:27.011Z,5.20
2018-04-26T11:09:54.654Z,5.60
2018-04-26T11:12:22.206Z,5.80
2018-04-26T11:14:49.745Z,6.07
2018-04-26T11:17:18.559Z,6.57
2018-04-26T11:19:46.036Z,5.13
2018-04-26T11:22:13.567Z,6.40
2018-04-26T11:24:41.068Z,6.13
2018-04-26T11:27:08.628Z,5.80
2018-04-26T11:29:36.226Z,4.67
2018-04-26T11:32:04.427Z,5.13
2018-04-26T11:34:32.701Z,3.90
2018-04-26T11:37:00.252Z,4.50
2018-04-26T11:39:28.553Z,4.63
2018-04-26T11:41:56.183Z,5.27
2018-04-26T11:44:23.738Z,4.47
2018-04-26T11:46:51.275Z,4.93
2018-04-26T11:49:18.894Z,5.00
2018-04-26T11:51:46.457Z,5.70
2018-04-26T11:54:14.723Z,5.43
2018-04-26T11:56:42.258Z,6.57
2018-04-26T11:59:09.790Z,6.57
2018-04-26T12:01:37.352Z,6.90
2018-04-26T12:04:04.856Z,6.10
2018-04-26T12:06:33.163Z,7.00
2018-04-26T12:09:00.682Z,7.13
2018-04-26T12:11:28.283Z,7.27
2018-04-26T12:13:55.822Z,5.97
2018-04-26T12:16:24.118Z,4.20
2018-04-26T12:18:51.648Z,5.50
2018-04-26T12:21:19.172Z,5.50
2018-04-26T12:23:46.689Z,5.47
2018-04-26T12:26:14.191Z,4.77
2018-04-26T12:28:41.720Z,4.87
2018-04-26T12:31:09.268Z,4.80
2018-04-26T12:33:36.811Z,5.30
2018-04-26T12:36:04.346Z,4.77
2018-04-26T12:38:31.895Z,5.50
2018-04-26T12:40:59.450Z,5.90
2018-04-26T12:43:26.979Z,6.30
2018-04-26T12:45:55.134Z,6.00
2018-04-26T12:48:22.659Z,4.93
2018-04-26T12:50:50.186Z,4.63
2018-04-26T12:53:17.704Z,5.20
2018-04-26T12:55:45.219Z,4.60
2018-04-26T12:58:12.822Z,4.40
2018-04-26T13:00:40.298Z,4.50
2018-04-26T13:03:08.613Z,4.40
2018-04-26T13:05:36.154Z,4.40
2018-04-26T13:08:04.499Z,4.23
2018-04-26T13:10:31.999Z,5.37
2018-04-26T13:12:59.545Z,4.77
2018-04-26T13:15:27.828Z,4.60
2018-04-26T13:17:56.179Z,3.47
2018-04-26T13:20:23.711Z,4.23
2018-04-26T13:22:51.228Z,3.73
2018-04-26T13:25:18.788Z,4.13
2018-04-26T13:27:46.307Z,4.50
2018-04-26T13:30:13.843Z,4.33
2018-04-26T13:32:41.400Z,3.87
2018-04-26T13:35:08.915Z,3.80
2018-04-26T13:37:36.432Z,3.50
2018-04-26T13:40:03.985Z,4.30
2018-04-26T13:42:31.502Z,3.83
2018-04-26T13:44:59.018Z,3.33
2018-04-26T13:47:26.543Z,4.07
2018-04-26T13:49:54.066Z,4.50
2018-04-26T13:52:21.561Z,4.83
2018-04-26T13:54:49.133Z,4.60
2018-04-26T13:57:16.662Z,4.60
2018-04-26T13:59:44.207Z,4.23
2018-04-26T14:02:11.734Z,3.50
2018-04-26T14:04:39.247Z,3.70
2018-04-26T14:07:06.754Z,3.80
2018-04-26T14:09:34.291Z,3.43
2018-04-26T14:12:01.840Z,3.37
2018-04-26T14:14:30.150Z,3.30
2018-04-26T14:16:57.662Z,3.53
2018-04-26T14:19:25.978Z,3.77
2018-04-26T14:21:53.543Z,3.50
2018-04-26T14:24:21.068Z,3.67
2018-04-26T14:26:48.660Z,3.07
2018-04-26T14:29:16.244Z,4.00
2018-04-26T14:31:43.715Z,3.60
2018-04-26T14:34:11.220Z,3.87
2018-04-26T14:36:38.850Z,3.60
2018-04-26T14:39:06.364Z,3.80
2018-04-26T14:41:34.643Z,3.83
2018-04-26T14:44:02.230Z,3.60
2018-04-26T14:46:29.744Z,3.67
2018-04-26T14:48:57.330Z,3.57
2018-04-26T14:51:24.881Z,3.50
2018-04-26T14:53:52.426Z,3.17
2018-04-26T14:56:19.931Z,3.17
2018-04-26T14:58:47.467Z,3.33
2018-04-26T15:01:15.052Z,3.20
2018-04-26T15:03:42.598Z,3.00
2018-04-26T15:06:10.131Z,3.20
2018-04-26T15:08:37.710Z,4.10
2018-04-26T15:11:05.217Z,3.00
2018-04-26T15:13:32.758Z,3.73
2018-04-26T15:16:00.286Z,3.20
2018-04-26T15:18:27.828Z,4.17
2018-04-26T15:20:56.142Z,4.03
2018-04-26T15:23:23.717Z,4.27
2018-04-26T15:25:51.314Z,3.90
2018-04-26T15:28:18.963Z,4.10
2018-04-26T15:30:46.505Z,4.40
2018-04-26T15:33:14.082Z,4.47
2018-04-26T15:35:41.634Z,4.10
2018-04-26T15:38:09.156Z,4.37
2018-04-26T15:40:36.720Z,4.43
2018-04-26T15:43:04.218Z,4.37
2018-04-26T15:45:31.722Z,4.30
2018-04-26T15:48:00.034Z,4.50
2018-04-26T15:53:41.149Z,4.37
2018-04-26T15:56:22.198Z,5.40
2018-04-26T15:59:10.431Z,4.03
2018-04-26T16:04:59.844Z,4.73
2018-04-26T16:07:54.681Z,4.20
2018-04-26T16:10:39.859Z,5.37
2018-04-26T16:13:24.761Z,4.10
2018-04-26T16:16:09.702Z,4.07
2018-04-26T16:18:49.036Z,4.17
2018-04-26T16:21:35.255Z,4.37
2018-04-26T16:24:20.156Z,3.43
2018-04-26T16:27:05.177Z,4.03
2018-04-26T16:29:44.610Z,4.10
2018-04-26T16:32:29.556Z,4.17
2018-04-26T16:35:14.742Z,3.03
2018-04-26T16:38:12.234Z,4.60
2018-04-26T16:40:40.571Z,4.43
2018-04-26T16:43:08.147Z,4.47
2018-04-26T16:45:35.619Z,3.87
2018-04-26T16:48:03.209Z,3.23
2018-04-26T16:50:30.729Z,3.97
2018-04-26T16:52:58.294Z,4.23
2018-04-26T16:55:25.845Z,3.23
2018-04-26T16:57:53.350Z,3.30
2018-04-26T17:00:20.878Z,2.97
2018-04-26T17:02:48.428Z,3.50
2018-04-26T17:05:16.262Z,3.63
2018-04-26T17:07:43.800Z,3.43
2018-04-26T17:10:11.358Z,3.23
2018-04-26T17:12:39.631Z,3.70
2018-04-26T17:15:07.145Z,2.80
2018-04-26T17:17:34.670Z,2.90
2018-04-26T17:20:02.233Z,3.60
2018-04-26T17:22:29.810Z,3.53
2018-04-26T17:24:57.332Z,3.57
2018-04-26T17:27:25.656Z,3.53
2018-04-26T17:29:53.206Z,2.90
2018-04-26T17:32:20.822Z,3.50
2018-04-26T17:34:48.333Z,3.57
2018-04-26T17:37:15.833Z,3.20
2018-04-26T17:39:44.119Z,3.23
2018-04-26T17:42:11.636Z,3.10
2018-04-26T17:44:39.147Z,3.10
2018-04-26T17:47:07.526Z,3.10
2018-04-26T17:49:35.828Z,3.13
2018-04-26T17:52:03.343Z,2.87
2018-04-26T17:54:30.925Z,2.70
2018-04-26T17:56:58.454Z,3.30
2018-04-26T17:59:25.985Z,3.27
2018-04-26T18:01:53.558Z,3.00
2018-04-26T18:04:21.079Z,3.27
2018-04-26T18:06:49.038Z,2.73
2018-04-26T18:09:17.502Z,2.87
2018-04-26T18:11:45.038Z,3.20
2018-04-26T18:14:12.551Z,2.90
2018-04-26T18:16:40.098Z,2.80
2018-04-26T18:19:08.406Z,2.93
2018-04-26T18:21:35.994Z,2.93
2018-04-26T18:24:03.575Z,2.80
2018-04-26T18:26:31.387Z,3.23
2018-04-26T18:28:58.911Z,2.90
2018-04-26T18:31:26.481Z,3.00
2018-04-26T18:33:54.004Z,2.83
2018-04-26T18:36:21.666Z,3.77
2018-04-26T18:38:49.204Z,2.70
2018-04-26T18:41:16.878Z,2.77
2018-04-26T18:43:44.400Z,2.53
2018-04-26T18:46:11.983Z,2.87
2018-04-26T18:48:39.495Z,3.00
2018-04-26T18:51:07.759Z,2.73
2018-04-26T18:53:35.299Z,3.40
2018-04-26T18:56:02.802Z,3.10
2018-04-26T18:58:30.318Z,3.20
2018-04-26T19:00:57.884Z,3.13
2018-04-26T19:03:26.250Z,3.10
2018-04-26T19:05:53.849Z,2.77
2018-04-26T19:08:21.529Z,2.93
2018-04-26T19:10:49.050Z,3.27
2018-04-26T19:13:16.575Z,3.33
2018-04-26T19:15:44.935Z,3.57
2018-04-26T19:18:12.464Z,3.20
2018-04-26T19:20:40.586Z,3.20
2018-04-26T19:23:08.174Z,3.13
2018-04-26T19:25:35.759Z,3.30
2018-04-26T19:28:03.279Z,3.60
2018-04-26T19:30:30.806Z,3.40
2018-04-26T19:32:58.369Z,3.30
2018-04-26T19:35:25.897Z,3.00
2018-04-26T19:37:53.410Z,3.23
2018-04-26T19:40:20.974Z,3.40
2018-04-26T19:42:48.513Z,3.40
2018-04-26T19:45:16.054Z,3.40
2018-04-26T19:47:43.601Z,3.50
2018-04-26T19:50:11.153Z,3.60
2018-04-26T19:52:38.690Z,3.80
2018-04-26T19:55:08.964Z,3.50
2018-04-26T19:57:37.365Z,3.43
2018-04-26T20:00:05.657Z,3.00
2018-04-26T20:02:33.175Z,3.43
2018-04-26T20:05:00.675Z,3.33
2018-04-26T20:07:28.388Z,3.23
2018-04-26T20:09:56.150Z,3.30
2018-04-26T20:12:23.664Z,3.23
2018-04-26T20:14:52.148Z,3.40
2018-04-26T20:17:19.687Z,3.83
2018-04-26T20:19:47.248Z,3.33
2018-04-26T20:22:14.814Z,4.23
2018-04-26T20:24:42.398Z,3.47
2018-04-26T20:27:10.679Z,3.50
2018-04-26T20:29:39.448Z,3.10
2018-04-26T20:32:07.002Z,3.07
2018-04-26T20:34:34.555Z,3.60
2018-04-26T20:37:02.087Z,3.23
2018-04-26T20:39:29.594Z,3.37
2018-04-26T20:41:58.298Z,3.40
2018-04-26T20:44:38.323Z,3.77
2018-04-26T20:47:05.899Z,3.97
2018-04-26T20:49:34.187Z,3.50
2018-04-26T20:52:02.550Z,4.03
2018-04-26T20:54:30.096Z,3.53
2018-04-26T20:56:57.615Z,3.93
2018-04-26T20:59:25.226Z,3.53
2018-04-26T21:01:53.592Z,3.93
2018-04-26T21:04:21.136Z,3.67
2018-04-26T21:06:48.670Z,3.73
2018-04-26T21:09:16.225Z,4.30
2018-04-26T21:11:43.977Z,3.70
2018-04-26T21:14:12.030Z,4.10
2018-04-26T21:16:39.578Z,4.03
2018-04-26T21:19:07.124Z,4.07
2018-04-26T21:21:34.780Z,3.87
2018-04-26T21:24:02.316Z,4.00
2018-04-26T21:26:30.622Z,4.07
2018-04-26T21:28:58.302Z,3.90
2018-04-26T21:31:25.907Z,3.70
2018-04-26T21:33:54.231Z,3.50
2018-04-26T21:36:21.803Z,3.77
2018-04-26T21:38:49.354Z,3.90
2018-04-26T21:41:17.659Z,3.57
2018-04-26T21:43:45.232Z,3.43
2018-04-26T21:46:12.847Z,3.40
2018-04-26T21:48:40.631Z,3.90
2018-04-26T21:51:13.867Z,3.47
2018-04-26T21:53:47.873Z,3.73
2018-04-26T21:56:21.922Z,4.13
2018-04-26T21:58:55.050Z,3.27
2018-04-26T22:01:28.254Z,3.73
2018-04-26T22:03:56.563Z,3.10
2018-04-26T22:06:24.184Z,3.50
2018-04-26T22:08:51.812Z,4.00
2018-04-26T22:11:19.380Z,3.60
2018-04-26T22:13:46.933Z,3.47
2018-04-26T22:16:14.525Z,3.70
2018-04-26T22:18:42.080Z,3.77
2018-04-26T22:21:09.625Z,3.40
2018-04-26T22:23:38.023Z,3.37
2018-04-26T22:26:05.575Z,3.83
2018-04-26T22:28:33.148Z,3.60
2018-04-26T22:31:00.724Z,4.07
2018-04-26T22:33:28.267Z,3.40
2018-04-26T22:35:55.867Z,3.63
2018-04-26T22:38:24.160Z,3.30
2018-04-26T22:40:51.709Z,3.33
2018-04-26T22:43:19.272Z,3.40
2018-04-26T22:45:46.877Z,3.37
2018-04-26T22:48:14.413Z,3.47
2018-04-26T22:50:41.971Z,3.40
2018-04-26T22:53:09.508Z,3.50
2018-04-26T22:55:37.828Z,3.60
2018-04-26T22:58:05.398Z,3.87
2018-04-26T23:00:33.013Z,3.50
2018-04-26T23:03:00.719Z,3.67
2018-04-26T23:05:28.250Z,3.77
2018-04-26T23:07:55.885Z,3.40
2018-04-26T23:10:24.222Z,3.23
2018-04-26T23:12:52.709Z,3.27
2018-04-26T23:15:20.305Z,3.77
2018-04-26T23:17:47.872Z,3.63
2018-04-26T23:20:15.406Z,3.40
2018-04-26T23:22:42.976Z,3.20
2018-04-26T23:25:10.526Z,3.40
2018-04-26T23:27:38.076Z,3.30
2018-04-26T23:30:05.626Z,3.47
2018-04-26T23:32:33.188Z,3.50
2018-04-26T23:35:01.528Z,3.40
2018-04-26T23:37:29.103Z,3.40
2018-04-26T23:39:56.713Z,3.83
2018-04-26T23:42:24.283Z,3.47
2018-04-26T23:44:51.815Z,3.27
2018-04-26T23:47:19.380Z,3.07
2018-04-26T23:49:46.934Z,3.60
2018-04-26T23:52:14.485Z,3.37
2018-04-26T23:54:42.058Z,3.80
2018-04-26T23:57:09.751Z,3.27
2018-04-26T23:59:37.311Z,3.47
